sensor_id;sensor_type;location;lat;lon;timestamp;temperature;humidity
34815;DHT22;21030;53.912;15.214;2022-09-24T00:02:00;36.00;22.80
34815;DHT22;21030;53.912;15.214;2022-09-24T00:04:29;36.00;22.80
34815;DHT22;21030;53.912;15.214;2022-09-24T00:06:57;36.10;22.70
34815;DHT22;21030;53.912;15.214;2022-09-24T00:09:24;36.10;22.60
34815;DHT22;21030;53.912;15.214;2022-09-24T00:11:51;35.90;22.70
34815;DHT22;21030;53.912;15.214;2022-09-24T00:14:20;35.80;22.80
34815;DHT22;21030;53.912;15.214;2022-09-24T00:16:47;35.90;22.70
34815;DHT22;21030;53.912;15.214;2022-09-24T00:19:15;36.00;22.70
34815;DHT22;21030;53.912;15.214;2022-09-24T00:21:42;36.10;22.60
34815;DHT22;21030;53.912;15.214;2022-09-24T00:24:13;36.10;22.50
34815;DHT22;21030;53.912;15.214;2022-09-24T00:27:01;36.20;22.60
34815;DHT22;21030;53.912;15.214;2022-09-24T00:29:29;36.10;22.40
34815;DHT22;21030;53.912;15.214;2022-09-24T00:32:00;36.10;22.40
34815;DHT22;21030;53.912;15.214;2022-09-24T00:34:29;36.10;22.50
34815;DHT22;21030;53.912;15.214;2022-09-24T00:36:56;36.20;22.50
34815;DHT22;21030;53.912;15.214;2022-09-24T00:39:23;36.20;22.40
34815;DHT22;21030;53.912;15.214;2022-09-24T00:42:18;36.20;22.40
34815;DHT22;21030;53.912;15.214;2022-09-24T00:44:49;36.20;22.40
34815;DHT22;21030;53.912;15.214;2022-09-24T00:50:04;36.20;22.40
34815;DHT22;21030;53.912;15.214;2022-09-24T00:52:34;36.20;22.40
34815;DHT22;21030;53.912;15.214;2022-09-24T00:55:03;36.20;22.40
34815;DHT22;21030;53.912;15.214;2022-09-24T00:57:30;36.20;22.40
34815;DHT22;21030;53.912;15.214;2022-09-24T00:59:58;36.20;22.40
34815;DHT22;21030;53.912;15.214;2022-09-24T01:02:25;36.30;22.30
34815;DHT22;21030;53.912;15.214;2022-09-24T01:04:52;36.30;22.30
34815;DHT22;21030;53.912;15.214;2022-09-24T01:07:22;36.30;22.30
34815;DHT22;21030;53.912;15.214;2022-09-24T01:09:49;36.20;22.30
34815;DHT22;21030;53.912;15.214;2022-09-24T01:12:41;36.30;22.30
34815;DHT22;21030;53.912;15.214;2022-09-24T01:15:23;36.20;22.30
34815;DHT22;21030;53.912;15.214;2022-09-24T01:18:15;36.20;22.30
34815;DHT22;21030;53.912;15.214;2022-09-24T01:21:21;36.20;22.30
34815;DHT22;21030;53.912;15.214;2022-09-24T01:23:54;36.10;22.40
34815;DHT22;21030;53.912;15.214;2022-09-24T01:29:02;35.90;22.50
34815;DHT22;21030;53.912;15.214;2022-09-24T01:31:44;35.90;22.50
34815;DHT22;21030;53.912;15.214;2022-09-24T01:34:19;35.90;22.60
34815;DHT22;21030;53.912;15.214;2022-09-24T01:36:49;35.90;22.50
34815;DHT22;21030;53.912;15.214;2022-09-24T01:39:19;35.90;22.50
34815;DHT22;21030;53.912;15.214;2022-09-24T01:41:47;35.90;22.50
34815;DHT22;21030;53.912;15.214;2022-09-24T01:44:15;35.90;22.50
34815;DHT22;21030;53.912;15.214;2022-09-24T01:46:44;35.90;22.40
34815;DHT22;21030;53.912;15.214;2022-09-24T01:49:11;35.80;22.40
34815;DHT22;21030;53.912;15.214;2022-09-24T01:51:46;35.70;22.50
34815;DHT22;21030;53.912;15.214;2022-09-24T01:54:27;35.60;22.60
34815;DHT22;21030;53.912;15.214;2022-09-24T01:57:05;35.50;22.70
34815;DHT22;21030;53.912;15.214;2022-09-24T01:59:51;35.40;22.80
34815;DHT22;21030;53.912;15.214;2022-09-24T02:02:29;35.30;23.00
34815;DHT22;21030;53.912;15.214;2022-09-24T02:05:17;35.30;22.90
34815;DHT22;21030;53.912;15.214;2022-09-24T02:07:49;35.40;22.80
34815;DHT22;21030;53.912;15.214;2022-09-24T02:10:19;35.60;22.90
34815;DHT22;21030;53.912;15.214;2022-09-24T02:12:56;35.50;22.90
34815;DHT22;21030;53.912;15.214;2022-09-24T02:15:28;35.50;22.80
34815;DHT22;21030;53.912;15.214;2022-09-24T02:18:03;35.50;22.80
34815;DHT22;21030;53.912;15.214;2022-09-24T02:20:33;35.50;22.90
34815;DHT22;21030;53.912;15.214;2022-09-24T02:23:01;35.40;22.90
34815;DHT22;21030;53.912;15.214;2022-09-24T02:25:40;35.40;22.80
34815;DHT22;21030;53.912;15.214;2022-09-24T02:28:07;35.50;22.80
34815;DHT22;21030;53.912;15.214;2022-09-24T02:30:40;35.50;22.80
34815;DHT22;21030;53.912;15.214;2022-09-24T02:33:10;35.60;22.80
34815;DHT22;21030;53.912;15.214;2022-09-24T02:35:59;35.60;22.70
34815;DHT22;21030;53.912;15.214;2022-09-24T02:38:26;35.60;22.80
34815;DHT22;21030;53.912;15.214;2022-09-24T02:40:53;35.50;22.80
34815;DHT22;21030;53.912;15.214;2022-09-24T02:43:21;35.60;22.70
34815;DHT22;21030;53.912;15.214;2022-09-24T02:45:48;35.70;22.60
34815;DHT22;21030;53.912;15.214;2022-09-24T02:48:15;35.70;22.60
34815;DHT22;21030;53.912;15.214;2022-09-24T02:50:42;35.70;22.50
34815;DHT22;21030;53.912;15.214;2022-09-24T02:53:09;35.80;22.50
34815;DHT22;21030;53.912;15.214;2022-09-24T02:55:36;35.80;22.60
34815;DHT22;21030;53.912;15.214;2022-09-24T02:58:03;35.70;22.50
34815;DHT22;21030;53.912;15.214;2022-09-24T03:00:30;35.70;22.60
34815;DHT22;21030;53.912;15.214;2022-09-24T03:02:57;35.60;22.60
34815;DHT22;21030;53.912;15.214;2022-09-24T03:05:24;35.60;22.70
34815;DHT22;21030;53.912;15.214;2022-09-24T03:07:52;35.50;22.70
34815;DHT22;21030;53.912;15.214;2022-09-24T03:10:19;35.60;22.70
34815;DHT22;21030;53.912;15.214;2022-09-24T03:12:46;35.60;22.60
34815;DHT22;21030;53.912;15.214;2022-09-24T03:15:12;35.70;22.70
34815;DHT22;21030;53.912;15.214;2022-09-24T03:17:39;35.60;22.60
34815;DHT22;21030;53.912;15.214;2022-09-24T03:20:07;35.60;22.60
34815;DHT22;21030;53.912;15.214;2022-09-24T03:22:34;35.70;22.60
34815;DHT22;21030;53.912;15.214;2022-09-24T03:25:01;35.70;22.50
34815;DHT22;21030;53.912;15.214;2022-09-24T03:27:28;35.70;22.60
34815;DHT22;21030;53.912;15.214;2022-09-24T03:29:55;35.70;22.60
34815;DHT22;21030;53.912;15.214;2022-09-24T03:32:41;35.70;22.60
34815;DHT22;21030;53.912;15.214;2022-09-24T03:35:09;35.70;22.70
34815;DHT22;21030;53.912;15.214;2022-09-24T03:37:37;35.20;22.60
34815;DHT22;21030;53.912;15.214;2022-09-24T03:40:05;35.40;22.70
34815;DHT22;21030;53.912;15.214;2022-09-24T03:42:35;35.50;22.70
34815;DHT22;21030;53.912;15.214;2022-09-24T03:45:03;35.40;22.70
34815;DHT22;21030;53.912;15.214;2022-09-24T03:47:30;35.50;22.80
34815;DHT22;21030;53.912;15.214;2022-09-24T03:49:57;35.50;22.70
34815;DHT22;21030;53.912;15.214;2022-09-24T03:52:25;35.60;22.70
34815;DHT22;21030;53.912;15.214;2022-09-24T03:54:52;35.50;22.60
34815;DHT22;21030;53.912;15.214;2022-09-24T03:57:19;35.50;22.80
34815;DHT22;21030;53.912;15.214;2022-09-24T03:59:46;35.50;22.80
34815;DHT22;21030;53.912;15.214;2022-09-24T04:02:13;35.50;22.70
34815;DHT22;21030;53.912;15.214;2022-09-24T04:04:44;35.50;22.70
34815;DHT22;21030;53.912;15.214;2022-09-24T04:07:10;35.50;22.60
34815;DHT22;21030;53.912;15.214;2022-09-24T04:09:38;35.70;22.60
34815;DHT22;21030;53.912;15.214;2022-09-24T04:12:05;35.70;22.60
34815;DHT22;21030;53.912;15.214;2022-09-24T04:14:32;35.70;22.50
34815;DHT22;21030;53.912;15.214;2022-09-24T04:16:59;35.60;22.50
34815;DHT22;21030;53.912;15.214;2022-09-24T04:19:26;35.60;22.60
34815;DHT22;21030;53.912;15.214;2022-09-24T04:21:53;35.60;22.70
34815;DHT22;21030;53.912;15.214;2022-09-24T04:24:20;35.40;22.70
34815;DHT22;21030;53.912;15.214;2022-09-24T04:26:47;35.40;22.80
34815;DHT22;21030;53.912;15.214;2022-09-24T04:29:14;35.50;22.80
34815;DHT22;21030;53.912;15.214;2022-09-24T04:31:42;35.50;22.70
34815;DHT22;21030;53.912;15.214;2022-09-24T04:34:09;35.30;22.80
34815;DHT22;21030;53.912;15.214;2022-09-24T04:36:36;35.40;22.80
34815;DHT22;21030;53.912;15.214;2022-09-24T04:39:03;35.40;22.80
34815;DHT22;21030;53.912;15.214;2022-09-24T04:41:30;35.50;22.80
34815;DHT22;21030;53.912;15.214;2022-09-24T04:43:57;35.50;22.70
34815;DHT22;21030;53.912;15.214;2022-09-24T04:46:25;35.30;22.90
34815;DHT22;21030;53.912;15.214;2022-09-24T04:48:52;35.10;22.90
34815;DHT22;21030;53.912;15.214;2022-09-24T04:51:22;35.00;23.20
34815;DHT22;21030;53.912;15.214;2022-09-24T04:53:50;35.20;23.10
34815;DHT22;21030;53.912;15.214;2022-09-24T04:56:17;35.30;23.10
34815;DHT22;21030;53.912;15.214;2022-09-24T04:58:49;35.30;23.00
34815;DHT22;21030;53.912;15.214;2022-09-24T05:01:16;35.20;22.90
34815;DHT22;21030;53.912;15.214;2022-09-24T05:03:44;35.00;23.00
34815;DHT22;21030;53.912;15.214;2022-09-24T05:06:12;35.20;23.10
34815;DHT22;21030;53.912;15.214;2022-09-24T05:08:39;35.20;23.00
34815;DHT22;21030;53.912;15.214;2022-09-24T05:11:06;35.30;22.90
34815;DHT22;21030;53.912;15.214;2022-09-24T05:13:34;35.20;22.90
34815;DHT22;21030;53.912;15.214;2022-09-24T05:16:02;35.00;23.20
34815;DHT22;21030;53.912;15.214;2022-09-24T05:18:29;35.30;23.10
34815;DHT22;21030;53.912;15.214;2022-09-24T05:20:56;35.30;23.10
34815;DHT22;21030;53.912;15.214;2022-09-24T05:23:23;35.40;23.10
34815;DHT22;21030;53.912;15.214;2022-09-24T05:25:50;35.40;23.00
34815;DHT22;21030;53.912;15.214;2022-09-24T05:28:36;35.50;22.90
34815;DHT22;21030;53.912;15.214;2022-09-24T05:31:06;35.60;22.80
34815;DHT22;21030;53.912;15.214;2022-09-24T05:33:36;35.60;22.90
34815;DHT22;21030;53.912;15.214;2022-09-24T05:36:04;35.50;22.80
34815;DHT22;21030;53.912;15.214;2022-09-24T05:38:31;35.50;22.90
34815;DHT22;21030;53.912;15.214;2022-09-24T05:40:58;35.50;22.80
34815;DHT22;21030;53.912;15.214;2022-09-24T05:43:26;35.40;22.90
34815;DHT22;21030;53.912;15.214;2022-09-24T05:45:57;35.50;22.90
34815;DHT22;21030;53.912;15.214;2022-09-24T05:48:24;35.50;22.90
34815;DHT22;21030;53.912;15.214;2022-09-24T05:50:52;35.60;23.00
34815;DHT22;21030;53.912;15.214;2022-09-24T05:53:21;35.60;23.00
34815;DHT22;21030;53.912;15.214;2022-09-24T05:55:51;35.70;22.90
34815;DHT22;21030;53.912;15.214;2022-09-24T05:58:21;35.60;23.10
34815;DHT22;21030;53.912;15.214;2022-09-24T06:00:48;35.60;23.00
34815;DHT22;21030;53.912;15.214;2022-09-24T06:03:17;35.70;22.90
34815;DHT22;21030;53.912;15.214;2022-09-24T06:05:47;35.90;22.80
34815;DHT22;21030;53.912;15.214;2022-09-24T06:08:15;36.00;22.80
34815;DHT22;21030;53.912;15.214;2022-09-24T06:10:43;35.90;22.70
34815;DHT22;21030;53.912;15.214;2022-09-24T06:13:17;35.80;22.90
34815;DHT22;21030;53.912;15.214;2022-09-24T06:15:44;35.60;22.90
34815;DHT22;21030;53.912;15.214;2022-09-24T06:18:12;35.80;23.00
34815;DHT22;21030;53.912;15.214;2022-09-24T06:20:39;35.90;23.00
34815;DHT22;21030;53.912;15.214;2022-09-24T06:23:07;36.10;22.80
34815;DHT22;21030;53.912;15.214;2022-09-24T06:25:34;35.80;22.80
34815;DHT22;21030;53.912;15.214;2022-09-24T06:28:03;36.00;22.80
34815;DHT22;21030;53.912;15.214;2022-09-24T06:30:36;36.00;22.60
34815;DHT22;21030;53.912;15.214;2022-09-24T06:33:06;36.10;22.70
34815;DHT22;21030;53.912;15.214;2022-09-24T06:35:36;35.70;22.90
34815;DHT22;21030;53.912;15.214;2022-09-24T06:38:04;35.70;23.10
34815;DHT22;21030;53.912;15.214;2022-09-24T06:40:32;35.90;23.30
34815;DHT22;21030;53.912;15.214;2022-09-24T06:43:06;36.00;23.30
34815;DHT22;21030;53.912;15.214;2022-09-24T06:45:33;35.80;23.40
34815;DHT22;21030;53.912;15.214;2022-09-24T06:48:02;35.90;23.20
34815;DHT22;21030;53.912;15.214;2022-09-24T06:50:33;36.00;23.10
34815;DHT22;21030;53.912;15.214;2022-09-24T06:53:04;36.20;23.20
34815;DHT22;21030;53.912;15.214;2022-09-24T06:55:31;36.30;23.20
34815;DHT22;21030;53.912;15.214;2022-09-24T06:58:07;36.30;23.20
34815;DHT22;21030;53.912;15.214;2022-09-24T07:00:35;35.80;23.30
34815;DHT22;21030;53.912;15.214;2022-09-24T07:03:03;36.00;23.60
34815;DHT22;21030;53.912;15.214;2022-09-24T07:05:31;36.40;23.30
34815;DHT22;21030;53.912;15.214;2022-09-24T07:07:58;36.40;23.90
34815;DHT22;21030;53.912;15.214;2022-09-24T07:10:25;36.60;23.10
34815;DHT22;21030;53.912;15.214;2022-09-24T07:12:53;36.70;23.10
34815;DHT22;21030;53.912;15.214;2022-09-24T07:15:21;36.80;23.20
34815;DHT22;21030;53.912;15.214;2022-09-24T07:17:48;37.00;23.20
34815;DHT22;21030;53.912;15.214;2022-09-24T07:20:20;37.10;22.90
34815;DHT22;21030;53.912;15.214;2022-09-24T07:22:47;37.20;22.90
34815;DHT22;21030;53.912;15.214;2022-09-24T07:25:16;37.40;22.70
34815;DHT22;21030;53.912;15.214;2022-09-24T07:27:43;37.60;22.70
34815;DHT22;21030;53.912;15.214;2022-09-24T07:30:11;37.00;22.90
34815;DHT22;21030;53.912;15.214;2022-09-24T07:32:38;36.90;23.10
34815;DHT22;21030;53.912;15.214;2022-09-24T07:35:06;37.10;22.90
34815;DHT22;21030;53.912;15.214;2022-09-24T07:37:33;37.30;23.00
34815;DHT22;21030;53.912;15.214;2022-09-24T07:40:00;37.50;23.00
34815;DHT22;21030;53.912;15.214;2022-09-24T07:42:27;37.80;22.80
34815;DHT22;21030;53.912;15.214;2022-09-24T07:44:55;37.70;22.70
34815;DHT22;21030;53.912;15.214;2022-09-24T07:47:22;38.00;22.60
34815;DHT22;21030;53.912;15.214;2022-09-24T07:49:50;37.70;22.40
34815;DHT22;21030;53.912;15.214;2022-09-24T07:52:17;38.20;22.80
34815;DHT22;21030;53.912;15.214;2022-09-24T07:54:44;38.70;22.30
34815;DHT22;21030;53.912;15.214;2022-09-24T07:57:11;39.10;22.00
34815;DHT22;21030;53.912;15.214;2022-09-24T07:59:39;39.50;21.60
34815;DHT22;21030;53.912;15.214;2022-09-24T08:02:14;39.80;21.70
34815;DHT22;21030;53.912;15.214;2022-09-24T08:04:43;40.20;21.40
34815;DHT22;21030;53.912;15.214;2022-09-24T08:07:11;40.40;21.30
34815;DHT22;21030;53.912;15.214;2022-09-24T08:09:39;40.50;21.00
34815;DHT22;21030;53.912;15.214;2022-09-24T08:12:09;40.70;21.00
34815;DHT22;21030;53.912;15.214;2022-09-24T08:14:38;40.90;21.20
34815;DHT22;21030;53.912;15.214;2022-09-24T08:17:05;41.00;21.20
34815;DHT22;21030;53.912;15.214;2022-09-24T08:19:32;41.20;21.00
34815;DHT22;21030;53.912;15.214;2022-09-24T08:22:00;41.30;20.90
34815;DHT22;21030;53.912;15.214;2022-09-24T08:24:27;41.50;21.10
34815;DHT22;21030;53.912;15.214;2022-09-24T08:26:54;41.90;20.70
34815;DHT22;21030;53.912;15.214;2022-09-24T08:29:21;42.30;20.60
34815;DHT22;21030;53.912;15.214;2022-09-24T08:31:48;42.50;20.30
34815;DHT22;21030;53.912;15.214;2022-09-24T08:34:15;42.60;20.20
34815;DHT22;21030;53.912;15.214;2022-09-24T08:36:42;42.10;20.40
34815;DHT22;21030;53.912;15.214;2022-09-24T08:39:12;41.70;20.20
34815;DHT22;21030;53.912;15.214;2022-09-24T08:41:55;41.40;20.60
34815;DHT22;21030;53.912;15.214;2022-09-24T08:44:50;40.60;20.40
34815;DHT22;21030;53.912;15.214;2022-09-24T08:47:52;40.30;20.90
34815;DHT22;21030;53.912;15.214;2022-09-24T08:50:26;40.80;20.90
34815;DHT22;21030;53.912;15.214;2022-09-24T08:53:05;40.80;20.90
34815;DHT22;21030;53.912;15.214;2022-09-24T08:55:41;40.50;21.30
34815;DHT22;21030;53.912;15.214;2022-09-24T09:01:30;40.50;20.80
34815;DHT22;21030;53.912;15.214;2022-09-24T09:06:37;40.50;20.80
34815;DHT22;21030;53.912;15.214;2022-09-24T09:09:13;40.80;20.90
34815;DHT22;21030;53.912;15.214;2022-09-24T09:11:59;40.80;21.00
34815;DHT22;21030;53.912;15.214;2022-09-24T09:17:30;41.50;21.00
34815;DHT22;21030;53.912;15.214;2022-09-24T09:20:00;41.40;20.70
34815;DHT22;21030;53.912;15.214;2022-09-24T09:22:30;40.80;20.60
34815;DHT22;21030;53.912;15.214;2022-09-24T09:25:11;40.30;20.60
34815;DHT22;21030;53.912;15.214;2022-09-24T09:27:40;40.60;20.80
34815;DHT22;21030;53.912;15.214;2022-09-24T09:30:13;40.80;20.40
34815;DHT22;21030;53.912;15.214;2022-09-24T09:38:37;41.40;20.20
34815;DHT22;21030;53.912;15.214;2022-09-24T09:43:40;41.40;19.80
34815;DHT22;21030;53.912;15.214;2022-09-24T09:46:30;41.30;19.60
34815;DHT22;21030;53.912;15.214;2022-09-24T09:49:03;41.70;19.60
34815;DHT22;21030;53.912;15.214;2022-09-24T09:51:42;41.60;19.40
34815;DHT22;21030;53.912;15.214;2022-09-24T09:54:09;41.20;19.30
34815;DHT22;21030;53.912;15.214;2022-09-24T09:56:47;40.80;19.70
34815;DHT22;21030;53.912;15.214;2022-09-24T09:59:20;41.00;20.00
34815;DHT22;21030;53.912;15.214;2022-09-24T10:01:54;41.40;20.10
34815;DHT22;21030;53.912;15.214;2022-09-24T10:07:11;41.50;19.70
34815;DHT22;21030;53.912;15.214;2022-09-24T10:09:39;41.60;19.30
34815;DHT22;21030;53.912;15.214;2022-09-24T10:12:18;41.40;19.40
34815;DHT22;21030;53.912;15.214;2022-09-24T10:15:16;41.60;20.30
34815;DHT22;21030;53.912;15.214;2022-09-24T10:17:45;41.50;19.80
34815;DHT22;21030;53.912;15.214;2022-09-24T10:20:26;41.90;19.70
34815;DHT22;21030;53.912;15.214;2022-09-24T10:23:05;42.20;19.50
34815;DHT22;21030;53.912;15.214;2022-09-24T10:25:34;42.60;19.50
34815;DHT22;21030;53.912;15.214;2022-09-24T10:28:07;42.30;19.00
34815;DHT22;21030;53.912;15.214;2022-09-24T10:31:20;42.60;18.80
34815;DHT22;21030;53.912;15.214;2022-09-24T10:33:49;43.10;19.10
34815;DHT22;21030;53.912;15.214;2022-09-24T10:36:23;43.60;18.40
34815;DHT22;21030;53.912;15.214;2022-09-24T10:39:12;44.20;17.70
34815;DHT22;21030;53.912;15.214;2022-09-24T10:41:52;44.60;16.70
34815;DHT22;21030;53.912;15.214;2022-09-24T10:44:20;44.70;16.90
34815;DHT22;21030;53.912;15.214;2022-09-24T10:58:00;46.40;15.80
34815;DHT22;21030;53.912;15.214;2022-09-24T11:09:40;45.60;16.20
34815;DHT22;21030;53.912;15.214;2022-09-24T11:12:22;45.70;16.30
34815;DHT22;21030;53.912;15.214;2022-09-24T11:20:52;45.00;16.90
34815;DHT22;21030;53.912;15.214;2022-09-24T11:54:05;43.30;17.70
34815;DHT22;21030;53.912;15.214;2022-09-24T11:56:40;43.40;17.70
34815;DHT22;21030;53.912;15.214;2022-09-24T12:00:31;43.60;17.80
34815;DHT22;21030;53.912;15.214;2022-09-24T12:02:28;43.60;18.00
34815;DHT22;21030;53.912;15.214;2022-09-24T12:05:04;43.20;18.20
34815;DHT22;21030;53.912;15.214;2022-09-24T12:13:14;43.70;17.90
34815;DHT22;21030;53.912;15.214;2022-09-24T12:15:54;43.60;17.80
34815;DHT22;21030;53.912;15.214;2022-09-24T12:18:32;42.80;18.20
34815;DHT22;21030;53.912;15.214;2022-09-24T12:21:10;43.80;18.20
34815;DHT22;21030;53.912;15.214;2022-09-24T12:23:42;43.80;18.00
34815;DHT22;21030;53.912;15.214;2022-09-24T12:26:12;44.00;17.80
34815;DHT22;21030;53.912;15.214;2022-09-24T12:28:57;44.10;17.20
34815;DHT22;21030;53.912;15.214;2022-09-24T12:31:57;44.30;17.50
34815;DHT22;21030;53.912;15.214;2022-09-24T12:37:36;44.30;17.00
34815;DHT22;21030;53.912;15.214;2022-09-24T12:42:50;44.80;17.40
34815;DHT22;21030;53.912;15.214;2022-09-24T12:45:21;44.40;17.20
34815;DHT22;21030;53.912;15.214;2022-09-24T12:47:59;44.10;17.20
34815;DHT22;21030;53.912;15.214;2022-09-24T12:50:58;43.70;17.60
34815;DHT22;21030;53.912;15.214;2022-09-24T12:53:33;44.00;17.70
34815;DHT22;21030;53.912;15.214;2022-09-24T12:56:02;44.20;17.90
34815;DHT22;21030;53.912;15.214;2022-09-24T12:58:41;44.00;17.80
34815;DHT22;21030;53.912;15.214;2022-09-24T13:06:42;43.20;18.20
34815;DHT22;21030;53.912;15.214;2022-09-24T13:09:37;42.70;17.90
34815;DHT22;21030;53.912;15.214;2022-09-24T13:12:21;42.50;18.20
34815;DHT22;21030;53.912;15.214;2022-09-24T13:17:28;42.00;18.60
34815;DHT22;21030;53.912;15.214;2022-09-24T13:19:58;41.30;18.90
34815;DHT22;21030;53.912;15.214;2022-09-24T13:22:34;40.70;19.10
34815;DHT22;21030;53.912;15.214;2022-09-24T13:27:40;39.50;20.10
34815;DHT22;21030;53.912;15.214;2022-09-24T13:30:18;39.70;20.40
34815;DHT22;21030;53.912;15.214;2022-09-24T13:32:55;39.90;20.30
34815;DHT22;21030;53.912;15.214;2022-09-24T13:35:33;39.90;20.30
34815;DHT22;21030;53.912;15.214;2022-09-24T13:38:22;39.80;20.20
34815;DHT22;21030;53.912;15.214;2022-09-24T13:40:55;38.70;20.30
34815;DHT22;21030;53.912;15.214;2022-09-24T13:43:38;39.20;20.70
34815;DHT22;21030;53.912;15.214;2022-09-24T13:46:12;39.80;20.90
34815;DHT22;21030;53.912;15.214;2022-09-24T13:48:47;40.10;20.10
34815;DHT22;21030;53.912;15.214;2022-09-24T13:51:15;40.20;20.10
34815;DHT22;21030;53.912;15.214;2022-09-24T13:53:48;40.60;20.10
34815;DHT22;21030;53.912;15.214;2022-09-24T13:56:19;40.70;20.10
34815;DHT22;21030;53.912;15.214;2022-09-24T13:58:47;40.70;20.00
34815;DHT22;21030;53.912;15.214;2022-09-24T14:01:17;40.70;20.30
34815;DHT22;21030;53.912;15.214;2022-09-24T14:04:02;40.60;20.30
34815;DHT22;21030;53.912;15.214;2022-09-24T14:06:41;40.50;20.30
34815;DHT22;21030;53.912;15.214;2022-09-24T14:09:32;39.70;20.90
34815;DHT22;21030;53.912;15.214;2022-09-24T14:12:10;39.30;21.40
34815;DHT22;21030;53.912;15.214;2022-09-24T14:14:45;39.60;21.30
34815;DHT22;21030;53.912;15.214;2022-09-24T14:17:15;39.10;21.10
34815;DHT22;21030;53.912;15.214;2022-09-24T14:19:42;38.50;21.40
34815;DHT22;21030;53.912;15.214;2022-09-24T14:22:18;38.20;22.00
34815;DHT22;21030;53.912;15.214;2022-09-24T14:24:54;38.40;22.10
34815;DHT22;21030;53.912;15.214;2022-09-24T14:27:23;38.20;21.90
34815;DHT22;21030;53.912;15.214;2022-09-24T14:29:54;38.30;22.10
34815;DHT22;21030;53.912;15.214;2022-09-24T14:32:34;37.60;21.70
34815;DHT22;21030;53.912;15.214;2022-09-24T14:35:20;37.70;22.10
34815;DHT22;21030;53.912;15.214;2022-09-24T14:40:41;38.40;21.10
34815;DHT22;21030;53.912;15.214;2022-09-24T14:46:06;38.90;20.50
34815;DHT22;21030;53.912;15.214;2022-09-24T14:48:35;39.10;20.60
34815;DHT22;21030;53.912;15.214;2022-09-24T14:51:03;39.60;21.00
34815;DHT22;21030;53.912;15.214;2022-09-24T14:53:35;39.80;20.60
34815;DHT22;21030;53.912;15.214;2022-09-24T14:56:27;40.30;20.40
34815;DHT22;21030;53.912;15.214;2022-09-24T14:58:55;40.50;20.30
34815;DHT22;21030;53.912;15.214;2022-09-24T15:01:31;40.10;20.20
34815;DHT22;21030;53.912;15.214;2022-09-24T15:04:06;39.90;20.60
34815;DHT22;21030;53.912;15.214;2022-09-24T15:06:47;39.30;20.60
34815;DHT22;21030;53.912;15.214;2022-09-24T15:11:44;38.80;21.40
34815;DHT22;21030;53.912;15.214;2022-09-24T15:16:43;37.40;21.70
34815;DHT22;21030;53.912;15.214;2022-09-24T15:19:21;37.30;22.30
34815;DHT22;21030;53.912;15.214;2022-09-24T15:21:54;37.60;22.10
34815;DHT22;21030;53.912;15.214;2022-09-24T15:24:23;37.50;22.30
34815;DHT22;21030;53.912;15.214;2022-09-24T15:27:15;37.30;22.20
34815;DHT22;21030;53.912;15.214;2022-09-24T15:29:48;37.30;22.40
34815;DHT22;21030;53.912;15.214;2022-09-24T15:32:18;37.20;22.50
34815;DHT22;21030;53.912;15.214;2022-09-24T15:34:46;37.30;22.30
34815;DHT22;21030;53.912;15.214;2022-09-24T15:37:19;37.50;22.50
34815;DHT22;21030;53.912;15.214;2022-09-24T15:39:51;38.00;22.60
34815;DHT22;21030;53.912;15.214;2022-09-24T15:42:21;38.50;22.00
34815;DHT22;21030;53.912;15.214;2022-09-24T15:44:48;38.90;22.40
34815;DHT22;21030;53.912;15.214;2022-09-24T15:47:21;38.80;21.80
34815;DHT22;21030;53.912;15.214;2022-09-24T15:49:49;38.60;21.90
34815;DHT22;21030;53.912;15.214;2022-09-24T15:54:51;38.40;22.20
34815;DHT22;21030;53.912;15.214;2022-09-24T15:57:18;38.30;22.10
34815;DHT22;21030;53.912;15.214;2022-09-24T15:59:47;38.60;22.30
34815;DHT22;21030;53.912;15.214;2022-09-24T16:02:17;38.50;22.30
34815;DHT22;21030;53.912;15.214;2022-09-24T16:04:47;38.60;22.40
34815;DHT22;21030;53.912;15.214;2022-09-24T16:07:14;38.60;22.40
34815;DHT22;21030;53.912;15.214;2022-09-24T16:09:41;38.80;22.40
34815;DHT22;21030;53.912;15.214;2022-09-24T16:12:14;38.80;22.50
34815;DHT22;21030;53.912;15.214;2022-09-24T16:14:41;38.50;22.50
34815;DHT22;21030;53.912;15.214;2022-09-24T16:17:09;38.50;22.70
34815;DHT22;21030;53.912;15.214;2022-09-24T16:19:37;38.50;22.80
34815;DHT22;21030;53.912;15.214;2022-09-24T16:22:04;38.60;22.80
34815;DHT22;21030;53.912;15.214;2022-09-24T16:24:32;39.00;23.10
34815;DHT22;21030;53.912;15.214;2022-09-24T16:26:59;39.30;22.70
34815;DHT22;21030;53.912;15.214;2022-09-24T16:29:26;39.50;22.50
34815;DHT22;21030;53.912;15.214;2022-09-24T16:31:53;39.50;22.60
34815;DHT22;21030;53.912;15.214;2022-09-24T16:34:20;39.50;22.50
34815;DHT22;21030;53.912;15.214;2022-09-24T16:36:47;39.60;22.60
34815;DHT22;21030;53.912;15.214;2022-09-24T16:39:15;39.70;22.50
34815;DHT22;21030;53.912;15.214;2022-09-24T16:41:42;39.70;22.40
34815;DHT22;21030;53.912;15.214;2022-09-24T16:44:10;39.70;22.40
34815;DHT22;21030;53.912;15.214;2022-09-24T16:46:44;39.70;22.50
34815;DHT22;21030;53.912;15.214;2022-09-24T16:49:11;39.70;22.50
34815;DHT22;21030;53.912;15.214;2022-09-24T16:51:38;39.40;22.50
34815;DHT22;21030;53.912;15.214;2022-09-24T16:54:07;39.20;22.60
34815;DHT22;21030;53.912;15.214;2022-09-24T16:56:34;39.20;22.90
34815;DHT22;21030;53.912;15.214;2022-09-24T16:59:03;39.30;22.90
34815;DHT22;21030;53.912;15.214;2022-09-24T17:01:31;39.40;22.80
34815;DHT22;21030;53.912;15.214;2022-09-24T17:03:58;39.50;22.70
34815;DHT22;21030;53.912;15.214;2022-09-24T17:06:28;39.40;22.70
34815;DHT22;21030;53.912;15.214;2022-09-24T17:08:56;39.40;22.90
34815;DHT22;21030;53.912;15.214;2022-09-24T17:11:42;39.40;22.90
34815;DHT22;21030;53.912;15.214;2022-09-24T17:14:12;39.20;23.00
34815;DHT22;21030;53.912;15.214;2022-09-24T17:16:41;39.20;23.50
34815;DHT22;21030;53.912;15.214;2022-09-24T17:19:10;39.30;23.10
34815;DHT22;21030;53.912;15.214;2022-09-24T17:21:39;39.30;22.90
34815;DHT22;21030;53.912;15.214;2022-09-24T17:24:07;39.40;22.70
34815;DHT22;21030;53.912;15.214;2022-09-24T17:26:34;39.40;22.50
34815;DHT22;21030;53.912;15.214;2022-09-24T17:29:02;39.40;22.60
34815;DHT22;21030;53.912;15.214;2022-09-24T17:31:30;39.40;22.70
34815;DHT22;21030;53.912;15.214;2022-09-24T17:34:03;39.50;22.80
34815;DHT22;21030;53.912;15.214;2022-09-24T17:36:32;39.50;22.70
34815;DHT22;21030;53.912;15.214;2022-09-24T17:38:59;39.50;22.50
34815;DHT22;21030;53.912;15.214;2022-09-24T17:41:28;39.50;22.40